createdAt,value
2022-09-04T00:00:18.833Z,5.57
2022-09-04T00:03:03.558Z,5.32
2022-09-04T00:05:52.168Z,5.22
2022-09-04T00:08:51.807Z,5.07
2022-09-04T00:11:38.902Z,5.25
2022-09-04T00:14:19.889Z,4.93
2022-09-04T00:17:00.291Z,6.30
2022-09-04T00:19:43.262Z,6.28
2022-09-04T00:22:56.084Z,6.93
2022-09-04T00:25:40.283Z,6.75
2022-09-04T00:28:38.630Z,5.88
2022-09-04T00:31:21.322Z,5.88
2022-09-04T00:34:07.275Z,6.22
2022-09-04T00:36:46.950Z,6.15
2022-09-04T00:39:23.908Z,6.20
2022-09-04T00:42:24.961Z,4.97
2022-09-04T00:44:52.898Z,5.50
2022-09-04T00:48:05.963Z,5.32
2022-09-04T00:51:16.286Z,5.28
2022-09-04T00:54:04.579Z,5.30
2022-09-04T00:56:58.880Z,5.45
2022-09-04T00:59:52.447Z,5.70
2022-09-04T01:02:50.862Z,5.30
2022-09-04T01:05:34.383Z,5.32
2022-09-04T01:08:40.316Z,5.03
2022-09-04T01:11:48.444Z,5.15
2022-09-04T01:14:42.866Z,5.47
2022-09-04T01:17:45.312Z,5.32
2022-09-04T01:20:58.232Z,6.30
2022-09-04T01:23:56.160Z,6.65
2022-09-04T01:26:47.733Z,7.05
2022-09-04T01:30:04.529Z,6.60
2022-09-04T01:33:08.906Z,7.13
2022-09-04T01:36:00.984Z,6.47
2022-09-04T01:38:51.299Z,6.80
2022-09-04T01:41:29.431Z,6.93
2022-09-04T01:43:56.333Z,6.90
2022-09-04T01:47:03.196Z,6.32
2022-09-04T01:50:00.280Z,7.22
2022-09-04T01:52:45.274Z,6.70
2022-09-04T01:55:37.472Z,6.70
2022-09-04T01:58:31.543Z,6.65
2022-09-04T02:01:30.695Z,6.13
2022-09-04T02:04:21.591Z,6.88
2022-09-04T02:06:57.072Z,7.22
2022-09-04T02:09:48.697Z,7.22
2022-09-04T02:12:50.891Z,8.88
2022-09-04T02:15:39.221Z,9.00
2022-09-04T02:18:26.717Z,9.25
2022-09-04T02:21:10.279Z,8.05
2022-09-04T02:23:52.035Z,7.18
2022-09-04T02:26:59.095Z,6.75
2022-09-04T02:29:39.109Z,7.10
2022-09-04T02:32:44.694Z,7.57
2022-09-04T02:35:44.805Z,6.28
2022-09-04T02:38:57.098Z,6.60
2022-09-04T02:41:58.178Z,9.05
2022-09-04T02:44:36.839Z,10.25
2022-09-04T02:47:16.097Z,10.63
2022-09-04T02:49:59.815Z,8.88
2022-09-04T02:53:03.980Z,8.63
2022-09-04T02:55:52.500Z,8.30
2022-09-04T02:58:49.785Z,7.53
2022-09-04T03:01:53.307Z,7.15
2022-09-04T03:05:00.255Z,7.60
2022-09-04T03:07:47.623Z,8.65
2022-09-04T03:10:33.450Z,8.15
2022-09-04T03:13:23.167Z,8.15
2022-09-04T03:16:18.950Z,8.15
2022-09-04T03:19:16.434Z,9.07
2022-09-04T03:21:43.397Z,8.35
2022-09-04T03:24:38.125Z,8.02
2022-09-04T03:27:10.523Z,8.52
2022-09-04T03:30:03.864Z,7.93
2022-09-04T03:33:27.216Z,8.15
2022-09-04T03:36:40.094Z,8.43
2022-09-04T03:40:08.659Z,8.77
2022-09-04T03:42:54.697Z,8.73
2022-09-04T03:45:48.831Z,8.32
2022-09-04T03:48:27.795Z,8.68
2022-09-04T03:51:51.939Z,8.23
2022-09-04T03:55:03.517Z,8.57
2022-09-04T03:58:17.716Z,8.55
2022-09-04T04:01:04.023Z,8.13
2022-09-04T04:04:03.115Z,8.57
2022-09-04T04:07:07.672Z,7.30
2022-09-04T04:10:17.400Z,8.38
2022-09-04T04:13:36.181Z,8.13
2022-09-04T04:16:26.553Z,8.10
2022-09-04T04:19:33.690Z,7.95
2022-09-04T04:22:55.932Z,7.97
2022-09-04T04:25:47.391Z,8.20
2022-09-04T04:29:02.655Z,8.18
2022-09-04T04:31:46.614Z,8.27
2022-09-04T04:34:46.894Z,8.30
2022-09-04T04:37:38.152Z,8.05
2022-09-04T04:40:57.974Z,8.18
2022-09-04T04:43:46.120Z,7.53
2022-09-04T04:46:42.891Z,8.52
2022-09-04T04:49:23.039Z,8.35
2022-09-04T04:52:08.416Z,8.57
2022-09-04T04:55:09.537Z,9.00
2022-09-04T04:58:20.216Z,8.63
2022-09-04T05:01:24.005Z,8.90
2022-09-04T05:04:06.279Z,9.70
2022-09-04T05:06:43.096Z,8.85
2022-09-04T05:09:55.619Z,9.30
2022-09-04T05:12:53.372Z,9.35
2022-09-04T05:15:52.983Z,9.35
2022-09-04T05:18:39.651Z,9.18
2022-09-04T05:21:28.717Z,8.98
2022-09-04T05:24:17.907Z,9.32
2022-09-04T05:27:51.017Z,9.45
2022-09-04T05:31:03.253Z,8.85
2022-09-04T05:34:09.828Z,8.52
2022-09-04T05:36:48.935Z,9.98
2022-09-04T05:39:59.820Z,9.35
2022-09-04T05:43:20.556Z,9.07
2022-09-04T05:45:53.346Z,10.27
2022-09-04T05:48:50.267Z,10.82
2022-09-04T05:51:44.767Z,10.63
2022-09-04T05:54:50.679Z,11.68
2022-09-04T05:57:49.489Z,12.00
2022-09-04T06:00:21.888Z,12.05
2022-09-04T06:03:00.775Z,13.77
2022-09-04T06:05:52.009Z,12.68
2022-09-04T06:08:47.578Z,12.27
2022-09-04T06:11:23.423Z,11.68
2022-09-04T06:14:17.603Z,10.93
2022-09-04T06:17:15.435Z,11.95
2022-09-04T06:20:07.276Z,12.90
2022-09-04T06:22:50.886Z,13.13
2022-09-04T06:26:01.207Z,12.57
2022-09-04T06:29:19.097Z,12.90
2022-09-04T06:32:21.286Z,13.93
2022-09-04T06:35:09.934Z,12.82
2022-09-04T06:38:16.630Z,13.35
2022-09-04T06:41:20.735Z,12.55
2022-09-04T06:44:26.881Z,13.38
2022-09-04T06:47:38.062Z,13.57
2022-09-04T06:50:43.257Z,14.45
2022-09-04T06:53:38.484Z,14.25
2022-09-04T06:56:22.790Z,13.80
2022-09-04T06:59:37.002Z,13.88
2022-09-04T07:02:44.541Z,14.07
2022-09-04T07:05:32.899Z,12.25
2022-09-04T07:08:54.418Z,14.13
2022-09-04T07:11:48.213Z,13.13
2022-09-04T07:14:50.522Z,13.38
2022-09-04T07:17:42.033Z,13.02
2022-09-04T07:20:41.131Z,13.02
2022-09-04T07:23:41.382Z,13.38
2022-09-04T07:26:46.937Z,12.38
2022-09-04T07:29:41.559Z,13.60
2022-09-04T07:32:25.314Z,12.43
2022-09-04T07:35:10.901Z,13.80
2022-09-04T07:38:01.716Z,13.55
2022-09-04T07:40:48.279Z,13.55
2022-09-04T07:43:24.827Z,14.43
2022-09-04T07:46:30.309Z,14.50
2022-09-04T07:49:31.534Z,13.23
2022-09-04T07:52:31.641Z,12.88
2022-09-04T07:55:09.615Z,13.68
2022-09-04T07:58:39.060Z,14.07
2022-09-04T08:01:56.039Z,13.60
2022-09-04T08:05:09.622Z,12.05
2022-09-04T08:07:39.419Z,14.52
2022-09-04T08:10:32.708Z,14.02
2022-09-04T08:13:22.496Z,13.93
2022-09-04T08:16:11.642Z,15.18
2022-09-04T08:19:18.445Z,13.85
2022-09-04T08:21:49.916Z,13.73
2022-09-04T08:24:32.929Z,13.32
2022-09-04T08:27:30.810Z,14.77
2022-09-04T08:30:08.663Z,13.60
2022-09-04T08:32:55.931Z,12.25
2022-09-04T08:35:31.073Z,12.60
2022-09-04T08:38:16.801Z,12.40
2022-09-04T08:41:15.571Z,13.18
2022-09-04T08:44:26.901Z,12.52
2022-09-04T08:47:35.159Z,12.23
2022-09-04T08:51:06.910Z,13.38
2022-09-04T08:54:26.054Z,12.63
2022-09-04T08:57:48.792Z,12.52
2022-09-04T09:00:37.714Z,16.13
2022-09-04T09:03:50.882Z,12.55
2022-09-04T09:06:59.876Z,15.55
2022-09-04T09:09:32.703Z,13.90
2022-09-04T09:12:09.278Z,13.23
2022-09-04T09:15:15.905Z,13.35
2022-09-04T09:18:08.173Z,13.68
2022-09-04T09:20:56.172Z,12.75
2022-09-04T09:24:25.689Z,11.20
2022-09-04T09:27:11.143Z,12.40
2022-09-04T09:30:04.007Z,11.07
2022-09-04T09:33:25.517Z,12.38
2022-09-04T09:36:20.098Z,12.77
2022-09-04T09:39:22.319Z,12.25
2022-09-04T09:42:21.584Z,12.18
2022-09-04T09:45:14.344Z,12.32
2022-09-04T09:48:30.039Z,10.93
2022-09-04T09:51:27.472Z,10.38
2022-09-04T09:54:43.516Z,9.88
2022-09-04T09:58:01.296Z,11.05
2022-09-04T10:01:22.092Z,9.55
2022-09-04T10:04:21.452Z,10.60
2022-09-04T10:07:46.185Z,9.57
2022-09-04T10:10:46.443Z,7.40
2022-09-04T10:13:57.537Z,8.45
2022-09-04T10:16:58.084Z,8.90
2022-09-04T10:19:39.338Z,6.95
2022-09-04T10:22:24.977Z,8.88
2022-09-04T10:25:32.249Z,7.15
2022-09-04T10:28:04.861Z,7.90
2022-09-04T10:31:30.107Z,7.25
2022-09-04T10:34:40.475Z,9.13
2022-09-04T10:37:47.318Z,9.15
2022-09-04T10:40:39.686Z,7.10
2022-09-04T10:43:56.032Z,6.70
2022-09-04T10:46:37.898Z,5.90
2022-09-04T10:49:19.529Z,6.53
2022-09-04T10:52:09.663Z,5.50
2022-09-04T10:55:07.862Z,4.65
2022-09-04T10:57:37.388Z,5.60
2022-09-04T11:00:14.012Z,5.32
2022-09-04T11:03:03.153Z,3.70
2022-09-04T11:06:29.634Z,4.32
2022-09-04T11:09:28.213Z,3.88
2022-09-04T11:12:28.969Z,3.38
2022-09-04T11:15:31.400Z,4.22
2022-09-04T11:18:35.960Z,3.53
2022-09-04T11:21:46.032Z,3.25
2022-09-04T11:25:04.258Z,3.40
2022-09-04T11:28:28.261Z,4.53
2022-09-04T11:31:33.443Z,4.30
2022-09-04T11:35:08.805Z,3.20
2022-09-04T11:38:08.099Z,2.90
2022-09-04T11:40:49.827Z,2.63
2022-09-04T11:43:49.243Z,3.40
2022-09-04T11:47:04.047Z,2.75
2022-09-04T11:50:03.091Z,2.75
2022-09-04T11:53:14.220Z,3.10
2022-09-04T11:56:15.415Z,2.28
2022-09-04T11:59:57.992Z,2.50
2022-09-04T12:03:08.329Z,2.20
2022-09-04T12:06:06.560Z,2.03
2022-09-04T12:09:10.573Z,2.17
2022-09-04T12:12:14.215Z,2.25
2022-09-04T12:15:22.217Z,2.50
2022-09-04T12:18:33.363Z,2.78
2022-09-04T12:21:43.913Z,2.45
2022-09-04T12:24:55.327Z,2.13
2022-09-04T12:27:40.347Z,2.22
2022-09-04T12:30:18.743Z,2.08
2022-09-04T12:33:12.166Z,2.38
2022-09-04T12:36:02.886Z,2.42
2022-09-04T12:39:18.284Z,2.10
2022-09-04T12:42:10.938Z,1.88
2022-09-04T12:44:49.607Z,2.92
2022-09-04T12:47:19.748Z,2.42
2022-09-04T12:50:34.159Z,2.45
2022-09-04T12:53:24.760Z,2.40
2022-09-04T12:56:28.583Z,2.20
2022-09-04T12:59:06.739Z,1.90
2022-09-04T13:02:24.211Z,1.73
2022-09-04T13:05:05.230Z,1.70
2022-09-04T13:07:55.660Z,2.10
2022-09-04T13:10:45.673Z,1.80
2022-09-04T13:13:43.315Z,2.40
2022-09-04T13:16:33.184Z,1.88
2022-09-04T13:19:47.780Z,2.40
2022-09-04T13:22:40.792Z,2.20
2022-09-04T13:25:53.478Z,2.03
2022-09-04T13:29:01.685Z,2.22
2022-09-04T13:32:34.657Z,1.90
2022-09-04T13:35:20.801Z,2.38
2022-09-04T13:38:15.666Z,2.50
2022-09-04T13:41:16.356Z,2.00
2022-09-04T13:43:52.208Z,2.30
2022-09-04T13:46:29.100Z,2.20
2022-09-04T13:49:17.293Z,3.45
2022-09-04T13:51:59.368Z,1.80
2022-09-04T13:55:07.748Z,2.30
2022-09-04T13:57:47.548Z,2.13
2022-09-04T14:00:16.935Z,1.92
2022-09-04T14:02:45.255Z,1.83
2022-09-04T14:05:20.424Z,1.90
2022-09-04T14:07:58.281Z,2.60
2022-09-04T14:10:56.868Z,2.53
2022-09-04T14:13:55.461Z,2.47
2022-09-04T14:16:23.863Z,2.00
2022-09-04T14:19:14.994Z,2.17
2022-09-04T14:22:07.490Z,2.10
2022-09-04T14:25:11.655Z,1.70
2022-09-04T14:28:10.468Z,1.63
2022-09-04T14:31:10.642Z,2.00
2022-09-04T14:34:20.878Z,1.70
2022-09-04T14:37:13.498Z,1.90
2022-09-04T14:39:55.627Z,2.03
2022-09-04T14:43:03.397Z,2.10
2022-09-04T14:45:59.874Z,2.00
2022-09-04T14:48:27.782Z,2.00
2022-09-04T14:51:00.423Z,1.70
2022-09-04T14:53:35.800Z,2.13
2022-09-04T14:56:11.807Z,1.95
2022-09-04T14:58:50.589Z,2.00
2022-09-04T15:01:20.346Z,2.47
2022-09-04T15:04:18.884Z,2.30
2022-09-04T15:07:38.089Z,2.25
2022-09-04T15:10:49.743Z,2.10
2022-09-04T15:13:28.279Z,2.30
2022-09-04T15:16:09.710Z,1.73
2022-09-04T15:19:00.260Z,2.83
2022-09-04T15:21:58.766Z,1.80
2022-09-04T15:24:52.299Z,2.15
2022-09-04T15:27:35.155Z,2.08
2022-09-04T15:30:16.147Z,2.00
2022-09-04T15:32:44.652Z,2.20
2022-09-04T15:35:29.256Z,1.90
2022-09-04T15:38:33.890Z,2.00
2022-09-04T15:41:32.473Z,1.98
2022-09-04T15:44:27.879Z,2.33
2022-09-04T15:47:23.189Z,2.35
2022-09-04T15:50:01.337Z,2.05
2022-09-04T15:53:10.720Z,2.35
2022-09-04T15:55:42.613Z,2.00
2022-09-04T15:58:32.575Z,1.90
2022-09-04T16:01:06.024Z,2.35
2022-09-04T16:04:14.285Z,2.13
2022-09-04T16:06:49.519Z,2.42
2022-09-04T16:10:14.631Z,2.03
2022-09-04T16:13:05.234Z,2.05
2022-09-04T16:15:40.555Z,1.85
2022-09-04T16:18:46.579Z,1.80
2022-09-04T16:21:40.582Z,1.50
2022-09-04T16:24:30.833Z,1.92
2022-09-04T16:26:59.439Z,4.07
2022-09-04T16:29:38.233Z,1.83
2022-09-04T16:32:09.872Z,2.03
2022-09-04T16:35:04.761Z,1.67
2022-09-04T16:37:48.695Z,2.10
2022-09-04T16:40:35.710Z,1.67
2022-09-04T16:43:15.270Z,1.48
2022-09-04T16:45:55.224Z,1.80
2022-09-04T16:48:34.548Z,1.70
2022-09-04T16:51:39.132Z,1.65
2022-09-04T16:54:48.949Z,1.40
2022-09-04T16:57:21.386Z,1.20
2022-09-04T16:59:57.365Z,1.40
2022-09-04T17:02:43.050Z,1.20
2022-09-04T17:05:49.406Z,1.10
2022-09-04T17:08:34.758Z,1.20
2022-09-04T17:11:22.583Z,1.25
2022-09-04T17:14:19.837Z,0.90
2022-09-04T17:17:03.848Z,0.90
2022-09-04T17:20:11.155Z,0.80
2022-09-04T17:29:04.063Z,1.35
2022-09-04T17:29:19.623Z,1.27
2022-09-04T17:29:37.381Z,1.10
2022-09-04T17:32:28.344Z,1.10
2022-09-04T17:40:41.465Z,1.30
2022-09-04T17:40:44.479Z,1.17
2022-09-04T17:41:40.063Z,1.00
2022-09-04T17:44:48.611Z,1.10
2022-09-04T17:47:42.558Z,1.27
2022-09-04T17:50:22.582Z,1.00
2022-09-04T17:53:12.144Z,1.10
2022-09-04T17:55:54.712Z,1.17
2022-09-04T17:58:35.512Z,1.08
2022-09-04T18:01:33.685Z,1.13
2022-09-04T18:04:33.810Z,1.20
2022-09-04T18:08:06.749Z,1.00
2022-09-04T18:10:24.180Z,1.15
2022-09-04T18:13:36.579Z,1.17
2022-09-04T18:17:11.578Z,1.30
2022-09-04T18:19:59.417Z,1.50
2022-09-04T18:22:47.853Z,2.08
2022-09-04T18:25:40.526Z,1.10
2022-09-04T18:28:26.878Z,1.60
2022-09-04T18:37:08.250Z,1.63
2022-09-04T18:37:17.800Z,1.63
2022-09-04T18:37:55.666Z,1.60
2022-09-04T18:40:54.866Z,1.52
2022-09-04T18:50:22.580Z,1.45
2022-09-04T18:50:29.499Z,1.50
2022-09-04T18:50:34.464Z,1.60
2022-09-04T18:52:13.668Z,1.42
2022-09-04T18:54:52.787Z,1.67
2022-09-04T18:57:33.403Z,1.25
2022-09-04T19:00:21.670Z,1.50
2022-09-04T19:03:25.275Z,1.50
2022-09-04T19:06:01.461Z,1.65
2022-09-04T19:08:42.340Z,1.92
2022-09-04T19:11:21.637Z,2.10
2022-09-04T19:14:06.351Z,2.58
2022-09-04T19:16:49.946Z,2.28
2022-09-04T19:19:38.340Z,2.40
2022-09-04T19:22:17.808Z,2.53
2022-09-04T19:25:04.317Z,2.85
2022-09-04T19:27:40.920Z,2.50
2022-09-04T19:30:23.932Z,2.03
2022-09-04T19:33:19.695Z,1.88
2022-09-04T19:36:05.746Z,1.63
2022-09-04T19:45:54.486Z,2.13
2022-09-04T19:46:00.638Z,2.13
2022-09-04T19:46:18.700Z,2.00
2022-09-04T19:48:18.882Z,1.92
2022-09-04T19:53:24.516Z,2.10
2022-09-04T19:54:04.793Z,2.08
2022-09-04T19:57:16.121Z,1.92
2022-09-04T19:59:46.015Z,2.30
2022-09-04T20:02:18.806Z,2.38
2022-09-04T20:04:55.337Z,2.25
2022-09-04T20:07:55.137Z,2.75
2022-09-04T20:10:38.245Z,2.15
2022-09-04T20:13:45.075Z,2.00
2022-09-04T20:16:40.154Z,1.85
2022-09-04T20:19:38.660Z,2.20
2022-09-04T20:22:27.232Z,2.00
2022-09-04T20:25:26.351Z,1.75
2022-09-04T20:28:38.408Z,1.85
2022-09-04T20:31:35.281Z,2.15
2022-09-04T20:34:25.152Z,1.83
2022-09-04T20:37:35.071Z,1.85
2022-09-04T20:40:44.311Z,1.98
2022-09-04T20:43:36.551Z,1.50
2022-09-04T20:52:42.499Z,1.70
2022-09-04T20:52:56.436Z,1.80
2022-09-04T20:52:57.196Z,2.00
2022-09-04T20:55:34.232Z,2.00
2022-09-04T21:00:41.999Z,1.90
2022-09-04T21:03:22.395Z,1.98
2022-09-04T21:04:23.762Z,1.80
2022-09-04T21:07:53.850Z,1.80
2022-09-04T21:10:36.023Z,1.92
2022-09-04T21:13:29.508Z,1.83
2022-09-04T21:16:29.646Z,1.80
2022-09-04T21:19:29.734Z,1.90
2022-09-04T21:22:39.695Z,1.67
2022-09-04T21:25:39.778Z,1.80
2022-09-04T21:28:33.637Z,1.80
2022-09-04T21:31:50.184Z,1.70
2022-09-04T21:34:51.211Z,1.98
2022-09-04T21:37:40.008Z,1.77
2022-09-04T21:40:52.881Z,2.05
2022-09-04T21:44:00.153Z,1.80
2022-09-04T21:47:08.512Z,1.90
2022-09-04T21:50:25.871Z,1.80
2022-09-04T21:53:52.949Z,1.90
2022-09-04T22:01:16.813Z,1.88
2022-09-04T22:02:36.083Z,2.05
2022-09-04T22:03:07.108Z,2.00
2022-09-04T22:06:10.276Z,2.10
2022-09-04T22:13:35.214Z,2.10
2022-09-04T22:13:46.218Z,2.10
2022-09-04T22:16:05.827Z,1.95
2022-09-04T22:19:05.719Z,1.65
2022-09-04T22:22:20.343Z,2.20
2022-09-04T22:25:32.367Z,1.90
2022-09-04T22:29:07.290Z,2.00
2022-09-04T22:32:20.071Z,1.95
2022-09-04T22:35:35.643Z,2.05
2022-09-04T22:38:53.009Z,2.00
2022-09-04T22:41:19.776Z,2.15
2022-09-04T22:44:20.320Z,2.38
2022-09-04T22:47:25.716Z,2.20
2022-09-04T22:50:34.322Z,2.33
2022-09-04T22:53:48.867Z,2.25
2022-09-04T22:56:54.008Z,2.13
2022-09-04T22:59:51.820Z,2.30
2022-09-04T23:03:08.762Z,2.35
2022-09-04T23:08:53.509Z,2.60
2022-09-04T23:13:50.286Z,2.60
2022-09-04T23:13:58.766Z,2.65
2022-09-04T23:16:28.337Z,2.78
2022-09-04T23:26:19.740Z,2.53
2022-09-04T23:26:36.926Z,2.80
2022-09-04T23:26:47.728Z,2.75
2022-09-04T23:29:15.899Z,2.80
2022-09-04T23:32:16.209Z,2.67
2022-09-04T23:35:13.882Z,2.90
2022-09-04T23:38:19.952Z,2.85
2022-09-04T23:41:03.842Z,2.47
2022-09-04T23:44:13.264Z,2.97
2022-09-04T23:46:55.267Z,2.90
2022-09-04T23:49:53.390Z,2.60
2022-09-04T23:52:48.742Z,2.75
2022-09-04T23:55:23.739Z,2.80
2022-09-04T23:57:55.304Z,2.65
